Time;durP1;ratioP1;P1;durP2;ratioP2;P2;SDS_P1;SDS_P2;PMS_P1;PMS_P2;Temp;Humidity;BMP_temperature;BMP_pressure;BME280_temperature;BME280_humidity;BME280_pressure;Samples;Min_cycle;Max_cycle;Signal;HPM_P1;HPM_P2
2023/01/30 00:01:01;;;;;;;;;9.75;9.25;;;;;7.15;85.11;101640.06;5001434;28;11095;-68
2023/01/30 00:03:28;;;;;;;;;8.75;8.00;;;;;7.12;85.36;101630.50;4999445;28;11073;-65
2023/01/30 00:05:54;;;;;;;;;9.75;9.75;;;;;7.08;85.88;101617.56;5012803;28;11293;-68
2023/01/30 00:08:20;;;;;;;;;15.25;12.25;;;;;7.05;85.88;101621.41;5011692;28;11166;-69
2023/01/30 00:10:48;;;;;;;;;11.50;10.50;;;;;7.11;85.57;101609.25;5010900;28;11279;-68
2023/01/30 00:13:15;;;;;;;;;8.00;8.00;;;;;7.17;85.30;101620.19;5011855;28;11006;-68
2023/01/30 00:15:41;;;;;;;;;10.00;9.50;;;;;7.12;84.99;101603.72;5003214;28;11145;-68
2023/01/30 00:18:08;;;;;;;;;14.25;12.00;;;;;7.16;84.85;101606.94;5008056;28;10898;-68
2023/01/30 00:20:36;;;;;;;;;11.50;8.50;;;;;7.15;84.89;101603.41;4995773;28;11098;-68
2023/01/30 00:23:03;;;;;;;;;9.75;9.75;;;;;7.15;84.78;101605.25;4993406;28;11100;-68
2023/01/30 00:25:30;;;;;;;;;9.00;7.75;;;;;7.15;85.04;101602.59;5008550;28;10962;-68
2023/01/30 00:28:00;;;;;;;;;7.25;7.25;;;;;7.13;84.79;101601.88;5004473;28;11268;-68
2023/01/30 00:30:28;;;;;;;;;10.50;9.50;;;;;7.09;85.70;101590.66;5001774;28;11136;-68
2023/01/30 00:32:57;;;;;;;;;9.75;9.00;;;;;7.13;84.93;101589.38;5005068;28;11083;-68
2023/01/30 00:35:27;;;;;;;;;9.75;8.25;;;;;7.18;85.12;101588.91;5019498;28;11153;-68
2023/01/30 00:37:58;;;;;;;;;6.50;5.00;;;;;7.17;85.23;101584.50;4999487;28;10929;-68
2023/01/30 00:40:25;;;;;;;;;9.75;6.00;;;;;7.22;84.70;101582.25;5010289;28;11068;-68
2023/01/30 00:48:31;;;;;;;;;4.75;2.50;;;;;7.19;84.92;101571.84;4989781;28;10857;-68
2023/01/30 00:50:58;;;;;;;;;6.50;5.00;;;;;7.23;84.70;101557.13;5009597;28;10814;-69
2023/01/30 00:53:25;;;;;;;;;4.00;4.00;;;;;7.16;84.77;101550.72;5010660;28;10904;-67
2023/01/30 00:55:53;;;;;;;;;5.50;5.00;;;;;7.14;84.65;101553.56;5008746;28;10934;-69
2023/01/30 00:58:21;;;;;;;;;7.25;7.25;;;;;7.10;84.94;101546.81;5012077;28;10900;-67
2023/01/30 01:00:48;;;;;;;;;7.50;5.25;;;;;7.11;85.59;101528.94;5010333;28;10874;-67
2023/01/30 01:03:15;;;;;;;;;7.50;5.25;;;;;7.15;85.42;101530.28;5005656;28;10951;-68
2023/01/30 01:05:42;;;;;;;;;6.00;4.00;;;;;7.20;85.49;101530.66;4993172;28;10974;-68
2023/01/30 01:08:09;;;;;;;;;6.25;6.25;;;;;7.21;84.73;101535.03;4992271;28;10903;-68
2023/01/30 01:10:36;;;;;;;;;6.50;5.00;;;;;7.13;85.23;101529.59;4999801;28;11045;-66
2023/01/30 01:13:05;;;;;;;;;8.00;7.50;;;;;7.13;85.39;101522.44;5005862;28;11130;-69
2023/01/30 01:15:32;;;;;;;;;8.00;7.50;;;;;7.16;86.21;101523.94;5008836;28;10965;-68
2023/01/30 01:17:59;;;;;;;;;11.00;9.25;;;;;7.05;86.70;101530.41;5000596;28;10913;-69
2023/01/30 01:20:25;;;;;;;;;7.00;5.00;;;;;7.13;86.50;101527.78;4993021;28;11164;-68
2023/01/30 01:22:53;;;;;;;;;10.50;8.50;;;;;7.18;85.62;101533.50;4994292;28;11067;-69
2023/01/30 01:25:21;;;;;;;;;6.50;6.50;;;;;7.23;85.23;101534.88;5008225;28;11060;-69
2023/01/30 01:27:48;;;;;;;;;5.00;5.00;;;;;7.08;86.38;101515.84;5010107;28;11003;-68
2023/01/30 01:30:16;;;;;;;;;3.50;3.50;;;;;7.10;86.52;101524.56;5010374;28;11646;-68
2023/01/30 01:32:43;;;;;;;;;5.50;5.00;;;;;7.17;86.52;101530.97;5019595;28;11047;-68
2023/01/30 01:35:10;;;;;;;;;6.00;6.00;;;;;7.12;87.08;101517.22;5006850;28;11049;-68
2023/01/30 01:37:36;;;;;;;;;4.25;4.25;;;;;7.06;87.01;101510.66;5006174;28;11650;-66
2023/01/30 01:42:50;;;;;;;;;5.75;5.00;;;;;7.04;87.26;101509.94;5009829;28;11092;-69
2023/01/30 01:45:24;;;;;;;;;4.00;4.00;;;;;7.02;87.46;101509.28;5009742;28;11026;-68
2023/01/30 01:48:08;;;;;;;;;5.00;5.00;;;;;6.98;87.41;101515.09;5010917;28;11721;-68
2023/01/30 01:50:52;;;;;;;;;5.50;4.25;;;;;7.04;86.97;101520.66;5007889;28;10999;-66
2023/01/30 01:53:23;;;;;;;;;7.50;4.50;;;;;7.01;87.10;101512.97;5005298;28;10802;-67
2023/01/30 01:55:52;;;;;;;;;7.50;7.25;;;;;6.96;88.32;101515.22;5009617;28;10910;-67
2023/01/30 01:58:31;;;;;;;;;4.00;4.00;;;;;6.98;87.64;101515.09;5009599;28;10922;-66
2023/01/30 02:01:00;;;;;;;;;4.50;4.00;;;;;7.02;88.69;101506.59;5000471;28;10832;-67
2023/01/30 02:03:29;;;;;;;;;6.25;4.50;;;;;6.97;87.84;101500.00;5006618;28;10964;-67
2023/01/30 02:05:59;;;;;;;;;6.50;6.50;;;;;6.99;87.71;101506.06;5003144;28;10759;-67
2023/01/30 02:08:37;;;;;;;;;3.00;2.00;;;;;7.03;87.79;101505.59;5001839;28;10881;-69
2023/01/30 02:11:20;;;;;;;;;4.75;4.25;;;;;6.94;87.78;101499.34;5004862;28;10644;-67
2023/01/30 02:13:49;;;;;;;;;4.75;2.00;;;;;6.98;87.65;101499.88;5007322;28;11140;-68
2023/01/30 02:16:16;;;;;;;;;7.75;5.50;;;;;7.00;87.85;101510.41;4990759;28;10812;-70
2023/01/30 02:18:45;;;;;;;;;4.25;4.25;;;;;7.00;87.61;101508.56;4993098;28;10849;-66
2023/01/30 02:21:33;;;;;;;;;9.00;3.00;;;;;7.00;87.50;101502.38;5004088;28;10904;-67
2023/01/30 02:24:11;;;;;;;;;4.50;2.00;;;;;7.00;87.67;101508.56;4999151;28;10818;-68
2023/01/30 02:27:12;;;;;;;;;6.50;5.50;;;;;7.06;87.84;101491.91;5006569;28;10739;-67
2023/01/30 02:30:26;;;;;;;;;5.50;5.50;;;;;7.09;87.64;101493.41;4999778;28;11023;-68
2023/01/30 02:33:29;;;;;;;;;4.25;1.75;;;;;7.07;86.83;101488.22;4997473;28;11032;-69
2023/01/30 02:36:20;;;;;;;;;4.75;2.00;;;;;7.05;86.99;101484.88;4987070;28;10946;-69
2023/01/30 02:38:58;;;;;;;;;4.00;4.00;;;;;7.02;87.76;101493.22;5024013;28;10840;-68
2023/01/30 02:41:40;;;;;;;;;4.25;4.25;;;;;7.05;87.37;101495.59;5005909;28;10895;-69
2023/01/30 02:44:22;;;;;;;;;5.25;4.00;;;;;7.07;87.40;101504.28;5003798;28;11393;-69
2023/01/30 02:46:57;;;;;;;;;7.50;4.50;;;;;7.08;87.45;101497.94;5005219;28;10675;-69
2023/01/30 02:49:31;;;;;;;;;6.00;4.00;;;;;7.09;86.48;101505.00;5000197;28;11019;-69
2023/01/30 02:52:01;;;;;;;;;6.50;3.00;;;;;7.05;86.75;101506.31;5013871;28;10817;-69
2023/01/30 02:54:28;;;;;;;;;7.75;3.50;;;;;7.06;86.89;101501.78;5012195;28;10817;-69
2023/01/30 02:56:57;;;;;;;;;4.50;3.75;;;;;7.09;87.30;101501.44;5003960;28;10812;-69
2023/01/30 02:59:26;;;;;;;;;5.00;2.50;;;;;7.09;87.19;101490.75;5009672;28;10934;-68
2023/01/30 03:02:20;;;;;;;;;4.00;2.00;;;;;7.13;87.09;101490.31;5005132;28;11427;-68
2023/01/30 03:05:07;;;;;;;;;4.75;2.25;;;;;7.20;86.71;101487.81;5004162;28;10852;-68
2023/01/30 03:07:44;;;;;;;;;4.00;4.00;;;;;7.22;87.17;101479.66;5007420;28;10797;-68
2023/01/30 03:10:32;;;;;;;;;6.75;5.25;;;;;7.21;86.69;101478.81;5012035;28;10677;-66
2023/01/30 03:13:13;;;;;;;;;6.25;3.25;;;;;7.17;85.99;101462.22;5012530;28;10938;-68
2023/01/30 03:15:48;;;;;;;;;7.50;6.00;;;;;7.14;86.41;101467.03;5002453;28;10831;-68
2023/01/30 03:18:17;;;;;;;;;6.25;5.50;;;;;7.18;86.84;101471.91;5010989;28;10972;-69
2023/01/30 03:20:44;;;;;;;;;4.75;4.00;;;;;7.15;86.42;101466.88;5008521;28;10754;-68
2023/01/30 03:23:10;;;;;;;;;4.75;1.00;;;;;7.23;86.78;101458.06;5013493;28;10847;-68
2023/01/30 03:25:39;;;;;;;;;2.00;2.00;;;;;7.25;85.89;101468.59;5011411;28;10659;-68
2023/01/30 03:28:07;;;;;;;;;3.25;3.25;;;;;7.25;86.48;101458.75;5013632;28;10669;-68
2023/01/30 03:30:34;;;;;;;;;7.50;7.25;;;;;7.29;86.23;101465.47;4991986;28;10795;-68
2023/01/30 03:33:07;;;;;;;;;2.00;2.00;;;;;7.28;85.97;101463.78;5010652;28;11505;-68
2023/01/30 03:35:35;;;;;;;;;5.00;2.50;;;;;7.33;85.71;101472.19;5001765;28;10763;-68
2023/01/30 03:38:01;;;;;;;;;5.00;3.50;;;;;7.28;86.15;101469.13;5011671;28;10751;-67
2023/01/30 03:40:28;;;;;;;;;5.75;4.25;;;;;7.27;85.91;101448.72;4997300;28;10982;-68
2023/01/30 03:42:55;;;;;;;;;6.00;3.00;;;;;7.35;85.83;101455.97;5005704;28;11820;-68
2023/01/30 03:45:22;;;;;;;;;5.00;5.00;;;;;7.40;85.52;101451.81;5010804;28;10602;-67
2023/01/30 03:47:49;;;;;;;;;5.00;5.00;;;;;7.36;85.64;101449.59;5007761;28;10743;-68
2023/01/30 03:50:16;;;;;;;;;5.75;5.00;;;;;7.37;85.63;101460.19;5008532;28;10689;-68
2023/01/30 03:52:44;;;;;;;;;1.00;1.00;;;;;7.40;86.01;101450.97;5007547;28;11461;-67
2023/01/30 03:55:14;;;;;;;;;5.75;4.00;;;;;7.43;85.67;101448.81;5010968;28;10741;-69
2023/01/30 03:57:41;;;;;;;;;5.25;3.00;;;;;7.39;85.70;101447.44;5010102;28;10678;-68
2023/01/30 04:00:09;;;;;;;;;3.50;3.50;;;;;7.45;85.31;101459.34;5010350;28;10646;-69
2023/01/30 04:02:42;;;;;;;;;4.50;3.50;;;;;7.48;84.83;101460.88;5011828;28;10740;-69
2023/01/30 04:05:11;;;;;;;;;3.50;3.00;;;;;7.46;84.96;101452.19;5000636;28;10619;-68
2023/01/30 04:07:42;;;;;;;;;7.50;2.75;;;;;7.44;85.24;101455.00;5004240;28;10735;-68
2023/01/30 04:10:09;;;;;;;;;2.00;2.00;;;;;7.46;85.17;101453.03;5007224;28;10709;-67
2023/01/30 04:12:36;;;;;;;;;2.75;2.50;;;;;7.44;84.77;101457.69;5009734;28;10657;-70
2023/01/30 04:15:03;;;;;;;;;7.50;4.50;;;;;7.41;84.85;101466.91;5004494;28;10688;-66
2023/01/30 04:17:55;;;;;;;;;6.25;4.00;;;;;7.44;84.59;101465.72;4995649;28;10688;-68
2023/01/30 04:20:45;;;;;;;;;6.75;4.25;;;;;7.43;84.40;101462.22;5001347;28;10807;-67
2023/01/30 04:23:13;;;;;;;;;6.25;5.25;;;;;7.44;84.23;101463.03;5006231;28;10714;-68
2023/01/30 04:25:40;;;;;;;;;8.25;6.75;;;;;7.42;84.42;101465.06;5001391;28;10609;-68
2023/01/30 04:28:08;;;;;;;;;4.00;1.75;;;;;7.38;84.24;101461.00;5007390;28;10974;-69
2023/01/30 04:30:36;;;;;;;;;2.00;2.00;;;;;7.33;84.24;101477.56;4994765;28;10661;-69
2023/01/30 04:33:42;;;;;;;;;7.00;4.50;;;;;7.33;83.87;101463.31;5003849;28;10619;-68
2023/01/30 04:36:10;;;;;;;;;4.50;4.00;;;;;7.31;83.38;101463.47;4990276;28;10637;-68
2023/01/30 04:38:37;;;;;;;;;5.00;1.00;;;;;7.40;83.35;101475.91;4996542;28;10780;-68
2023/01/30 04:41:05;;;;;;;;;5.50;4.50;;;;;7.41;82.49;101477.63;5009031;28;10707;-67
2023/01/30 04:43:35;;;;;;;;;6.50;4.00;;;;;7.36;82.82;101463.81;5005511;28;10740;-68
2023/01/30 04:46:07;;;;;;;;;3.75;3.00;;;;;7.34;82.90;101479.22;5004590;28;10754;-68
2023/01/30 04:48:33;;;;;;;;;1.00;1.00;;;;;7.30;81.77;101461.81;5003043;28;10694;-65
2023/01/30 04:51:01;;;;;;;;;4.00;4.00;;;;;7.36;81.75;101468.34;4998055;28;10508;-68
2023/01/30 04:53:27;;;;;;;;;4.25;4.00;;;;;7.43;81.32;101478.28;5000993;28;10576;-68
2023/01/30 04:55:54;;;;;;;;;6.00;6.00;;;;;7.47;80.67;101475.28;4990754;28;10588;-67
2023/01/30 04:58:20;;;;;;;;;2.00;2.00;;;;;7.47;80.05;101469.94;4994345;28;10517;-68
2023/01/30 05:00:47;;;;;;;;;3.25;3.25;;;;;7.45;80.24;101488.81;5010673;28;10820;-68
2023/01/30 05:03:15;;;;;;;;;4.75;4.00;;;;;7.42;80.13;101473.94;5009000;28;10611;-67
2023/01/30 05:05:44;;;;;;;;;5.50;5.00;;;;;7.41;80.34;101477.63;5003131;28;10584;-68
2023/01/30 05:08:11;;;;;;;;;5.75;3.00;;;;;7.41;79.83;101479.41;5010281;28;10731;-68
2023/01/30 05:10:37;;;;;;;;;4.00;4.00;;;;;7.40;79.48;101475.06;5007233;28;10686;-68
2023/01/30 05:13:04;;;;;;;;;3.00;3.00;;;;;7.33;79.56;101472.19;4991860;28;10582;-68
2023/01/30 05:15:31;;;;;;;;;4.25;4.00;;;;;7.31;79.66;101474.19;5008373;28;10673;-68
2023/01/30 05:17:58;;;;;;;;;3.50;2.50;;;;;7.21;79.88;101468.09;5004703;28;10824;-68
2023/01/30 05:20:24;;;;;;;;;4.00;4.00;;;;;7.19;78.60;101475.44;5011102;28;11450;-67
2023/01/30 05:22:51;;;;;;;;;7.25;3.25;;;;;7.12;76.51;101493.94;5011325;28;10592;-68
2023/01/30 05:25:17;;;;;;;;;2.00;2.00;;;;;7.08;76.99;101489.06;5010600;28;10685;-68
2023/01/30 05:27:44;;;;;;;;;2.00;2.00;;;;;7.11;76.21;101484.25;5007091;28;10582;-68
2023/01/30 05:30:11;;;;;;;;;5.00;4.00;;;;;7.09;76.47;101496.97;4992579;28;10676;-67
2023/01/30 05:32:37;;;;;;;;;4.25;3.75;;;;;6.96;75.25;101487.63;4996707;28;10847;-68
2023/01/30 05:35:04;;;;;;;;;5.75;3.50;;;;;6.96;75.75;101506.38;4996551;28;10848;-68
2023/01/30 05:37:30;;;;;;;;;4.00;3.00;;;;;6.87;74.38;101511.66;4991538;28;10998;-69
2023/01/30 05:39:57;;;;;;;;;4.75;2.00;;;;;6.85;74.55;101500.28;5003420;28;10804;-66
2023/01/30 05:42:23;;;;;;;;;2.00;2.00;;;;;6.89;73.83;101498.97;5011264;28;10742;-67
2023/01/30 05:44:49;;;;;;;;;2.00;1.00;;;;;6.90;73.60;101508.69;5000276;28;10763;-68
2023/01/30 05:47:16;;;;;;;;;3.75;3.75;;;;;6.92;72.61;101492.44;5000455;28;10833;-67
2023/01/30 05:49:42;;;;;;;;;3.50;1.50;;;;;6.89;72.91;101520.38;5004985;28;10798;-68
2023/01/30 05:52:09;;;;;;;;;4.00;1.00;;;;;6.84;72.62;101511.13;5011109;28;10585;-68
2023/01/30 05:54:35;;;;;;;;;4.00;1.25;;;;;6.85;72.15;101502.94;5010163;28;10833;-66
2023/01/30 05:57:02;;;;;;;;;4.00;4.00;;;;;6.87;71.95;101495.59;5010567;28;10682;-68
2023/01/30 05:59:28;;;;;;;;;3.00;2.00;;;;;6.83;72.63;101507.59;4998460;28;11585;-69
2023/01/30 06:01:54;;;;;;;;;2.25;2.00;;;;;6.85;72.68;101504.78;4995980;28;11457;-69
2023/01/30 06:04:21;;;;;;;;;1.25;1.25;;;;;6.88;72.62;101517.84;5003637;28;10924;-68
2023/01/30 06:06:49;;;;;;;;;2.75;1.75;;;;;6.87;73.25;101519.69;5010197;28;11535;-66
2023/01/30 06:09:16;;;;;;;;;1.25;1.25;;;;;6.87;72.69;101527.72;4999232;28;10935;-67
2023/01/30 06:11:42;;;;;;;;;1.00;1.00;;;;;6.90;73.46;101518.53;5004903;28;10890;-69
2023/01/30 06:14:09;;;;;;;;;6.00;4.50;;;;;6.85;73.13;101540.41;5004023;28;11502;-68
2023/01/30 06:16:35;;;;;;;;;4.50;4.50;;;;;6.84;73.54;101540.53;5003617;28;10795;-68
2023/01/30 06:19:02;;;;;;;;;4.00;1.75;;;;;6.79;74.30;101532.97;4999549;28;10847;-69
2023/01/30 06:21:28;;;;;;;;;2.00;1.00;;;;;6.81;73.68;101527.50;5000408;28;10732;-67
2023/01/30 06:23:54;;;;;;;;;1.25;1.25;;;;;6.82;74.56;101526.50;4999570;28;10793;-67
2023/01/30 06:26:21;;;;;;;;;1.75;1.75;;;;;6.82;73.77;101537.19;5005048;28;11512;-67
2023/01/30 06:28:48;;;;;;;;;5.00;2.00;;;;;6.75;74.25;101526.25;5008653;28;11717;-67
2023/01/30 06:31:15;;;;;;;;;6.25;3.50;;;;;6.74;74.16;101524.59;5006584;28;11064;-68
2023/01/30 06:33:42;;;;;;;;;8.75;4.00;;;;;6.67;74.05;101523.50;5012974;28;11532;-68
2023/01/30 06:36:09;;;;;;;;;1.25;1.25;;;;;6.67;73.93;101528.84;4994869;28;11699;-68
2023/01/30 06:38:35;;;;;;;;;1.75;1.75;;;;;6.68;73.88;101509.13;4996935;28;11025;-66
2023/01/30 06:41:02;;;;;;;;;5.00;5.00;;;;;6.62;73.43;101531.16;5014155;28;10796;-69
2023/01/30 06:43:28;;;;;;;;;4.75;4.00;;;;;6.59;72.94;101526.09;5007578;28;10912;-67
2023/01/30 06:45:57;;;;;;;;;2.00;2.00;;;;;6.63;73.13;101530.97;5007554;28;11058;-67
2023/01/30 06:48:24;;;;;;;;;4.00;1.25;;;;;6.62;73.08;101534.66;4998450;28;11108;-68
2023/01/30 06:50:50;;;;;;;;;3.50;3.50;;;;;6.64;73.06;101532.69;5013677;28;11029;-68
2023/01/30 06:53:17;;;;;;;;;9.50;4.00;;;;;6.67;73.00;101535.03;5013886;28;10813;-66
2023/01/30 06:55:43;;;;;;;;;6.25;3.00;;;;;6.67;72.31;101544.91;5013345;28;10856;-68
2023/01/30 06:58:13;;;;;;;;;2.00;0.75;;;;;6.66;72.62;101543.22;5010301;28;10870;-68
2023/01/30 07:00:41;;;;;;;;;6.00;1.75;;;;;6.64;72.40;101534.50;4999878;28;10865;-68
2023/01/30 07:03:16;;;;;;;;;4.00;1.50;;;;;6.62;71.90;101545.34;4994669;28;10924;-68
2023/01/30 07:05:44;;;;;;;;;2.50;2.50;;;;;6.65;71.84;101553.09;5009411;28;10751;-68
2023/01/30 07:08:12;;;;;;;;;5.00;1.50;;;;;6.56;72.34;101553.13;5008776;28;10963;-68
2023/01/30 07:10:40;;;;;;;;;4.50;2.50;;;;;6.56;71.98;101548.66;5010600;28;10989;-68
2023/01/30 07:13:06;;;;;;;;;6.00;4.75;;;;;6.55;70.98;101560.31;5010505;28;10984;-68
2023/01/30 07:15:33;;;;;;;;;4.75;4.75;;;;;6.55;71.18;101572.84;4998373;28;10841;-68
2023/01/30 07:17:59;;;;;;;;;1.00;1.00;;;;;6.53;71.42;101581.03;5013594;28;11108;-68
2023/01/30 07:20:26;;;;;;;;;1.50;1.50;;;;;6.56;71.17;101569.19;4997497;28;10961;-68
2023/01/30 07:22:54;;;;;;;;;1.25;1.25;;;;;6.60;70.72;101570.56;4994041;28;10805;-69
2023/01/30 07:25:23;;;;;;;;;1.50;1.25;;;;;6.59;71.34;101572.41;5008895;28;10779;-69
2023/01/30 07:27:54;;;;;;;;;2.50;2.00;;;;;6.60;70.24;101571.44;5001927;28;10779;-67
2023/01/30 07:30:21;;;;;;;;;1.25;1.25;;;;;6.60;70.13;101571.44;5009269;28;10829;-69
2023/01/30 07:32:53;;;;;;;;;2.00;2.00;;;;;6.65;70.26;101574.50;5011971;28;10768;-69
2023/01/30 07:35:21;;;;;;;;;4.50;3.00;;;;;6.59;70.73;101576.91;4997717;28;10862;-68
2023/01/30 07:37:49;;;;;;;;;6.00;1.50;;;;;6.58;70.81;101578.75;4993561;28;10729;-67
2023/01/30 07:40:17;;;;;;;;;2.50;2.50;;;;;6.56;70.78;101567.38;5007159;28;10813;-69
2023/01/30 07:42:55;;;;;;;;;1.00;1.00;;;;;6.65;70.65;101570.97;5010164;28;10713;-67
2023/01/30 07:45:21;;;;;;;;;5.25;1.25;;;;;6.67;70.74;101558.28;4996280;28;11067;-69
2023/01/30 07:47:47;;;;;;;;;4.00;2.50;;;;;6.66;71.12;101559.28;4994006;28;11116;-70
2023/01/30 07:50:14;;;;;;;;;5.25;4.00;;;;;6.66;70.64;101567.31;5007657;28;10829;-68
2023/01/30 07:52:41;;;;;;;;;3.75;2.00;;;;;6.64;70.48;101571.94;5013295;28;10873;-69
2023/01/30 07:55:07;;;;;;;;;6.75;4.50;;;;;6.59;70.91;101569.72;4999168;28;10824;-69
2023/01/30 07:57:34;;;;;;;;;7.00;4.00;;;;;6.64;69.75;101577.28;4993362;28;10922;-68
2023/01/30 08:00:00;;;;;;;;;3.00;3.00;;;;;6.65;70.83;101579.00;5005867;28;10887;-69
2023/01/30 08:02:34;;;;;;;;;6.25;4.25;;;;;6.62;70.31;101585.50;5000657;28;10822;-69
2023/01/30 08:05:00;;;;;;;;;6.50;1.50;;;;;6.63;70.47;101571.09;4993465;28;10804;-69
2023/01/30 08:07:27;;;;;;;;;4.50;2.00;;;;;6.64;69.15;101574.63;4993255;28;11304;-68
2023/01/30 08:09:53;;;;;;;;;4.00;1.25;;;;;6.69;69.81;101569.69;5004989;28;10958;-68
2023/01/30 08:12:19;;;;;;;;;1.00;1.00;;;;;6.74;69.37;101583.44;5012697;28;10820;-69
2023/01/30 08:14:46;;;;;;;;;3.50;1.00;;;;;6.76;69.82;101586.78;5001615;28;11672;-67
2023/01/30 08:17:12;;;;;;;;;4.75;3.00;;;;;6.78;69.15;101595.53;4998272;28;10724;-69
2023/01/30 08:19:39;;;;;;;;;5.00;5.00;;;;;6.70;69.89;101590.09;5002770;28;10898;-69
2023/01/30 08:22:05;;;;;;;;;1.75;1.00;;;;;6.69;69.65;101607.97;4993010;28;11086;-69
2023/01/30 08:24:31;;;;;;;;;1.50;1.50;;;;;6.79;69.70;101617.78;5001039;28;11605;-69
2023/01/30 08:26:59;;;;;;;;;2.50;2.50;;;;;6.84;69.73;101613.63;5001548;28;10829;-69
2023/01/30 08:29:25;;;;;;;;;3.00;2.00;;;;;6.84;69.63;101616.31;5004239;28;10822;-69
2023/01/30 08:31:58;;;;;;;;;7.50;2.00;;;;;6.79;69.81;101623.97;4992669;28;10782;-68
2023/01/30 08:34:25;;;;;;;;;5.75;2.00;;;;;6.78;69.13;101633.00;5000005;28;10944;-69
2023/01/30 08:36:52;;;;;;;;;5.00;1.00;;;;;6.84;69.31;101636.88;5011879;28;10991;-68
2023/01/30 08:39:18;;;;;;;;;4.00;4.00;;;;;6.84;69.35;101640.41;5009235;28;10827;-69
2023/01/30 08:41:45;;;;;;;;;2.00;2.00;;;;;6.87;69.99;101631.25;4995915;28;10835;-69
2023/01/30 08:44:11;;;;;;;;;4.25;3.50;;;;;6.86;69.93;101627.72;4997725;28;10791;-69
2023/01/30 08:46:38;;;;;;;;;8.50;4.00;;;;;6.86;70.07;101625.06;5007971;28;10834;-68
2023/01/30 08:49:05;;;;;;;;;4.75;4.75;;;;;6.87;69.94;101629.41;5006327;28;10844;-69
2023/01/30 08:51:32;;;;;;;;;4.00;4.00;;;;;6.82;69.75;101633.53;4992658;28;11245;-69
2023/01/30 08:53:58;;;;;;;;;2.50;2.50;;;;;6.86;70.33;101627.72;4996874;28;10871;-66
2023/01/30 08:56:25;;;;;;;;;4.50;4.50;;;;;6.93;70.11;101647.56;5011942;28;10688;-69
2023/01/30 08:58:51;;;;;;;;;2.50;2.00;;;;;7.06;69.92;101652.53;5009411;28;10820;-68
2023/01/30 09:01:18;;;;;;;;;5.00;3.00;;;;;7.11;70.30;101657.44;4997063;28;10723;-68
2023/01/30 09:03:45;;;;;;;;;8.00;3.50;;;;;7.09;69.09;101648.69;5010956;28;10903;-69
2023/01/30 09:06:11;;;;;;;;;3.25;2.00;;;;;7.00;69.46;101647.78;5011667;28;10816;-69
2023/01/30 09:08:38;;;;;;;;;3.50;2.50;;;;;7.00;69.61;101660.31;5010420;28;10687;-68
2023/01/30 09:11:05;;;;;;;;;0.50;0.25;;;;;7.05;69.68;101674.09;4992244;28;10691;-69
2023/01/30 09:13:33;;;;;;;;;1.00;0.75;;;;;7.16;69.95;101669.34;4995116;28;10615;-68
2023/01/30 09:16:00;;;;;;;;;6.50;3.50;;;;;7.11;68.99;101671.66;4991908;28;10527;-69
2023/01/30 09:18:26;;;;;;;;;4.00;1.25;;;;;7.08;69.45;101682.66;4991956;28;10692;-68
2023/01/30 09:21:02;;;;;;;;;5.00;2.00;;;;;7.10;69.59;101677.16;5011575;28;10622;-66
2023/01/30 09:23:28;;;;;;;;;4.25;2.50;;;;;7.13;68.74;101669.69;5011176;28;10666;-69
2023/01/30 09:25:54;;;;;;;;;4.75;1.75;;;;;7.13;67.93;101672.34;4991332;28;10768;-69
2023/01/30 09:28:21;;;;;;;;;3.00;1.50;;;;;7.19;68.99;101690.47;5000804;28;10717;-67
2023/01/30 09:30:47;;;;;;;;;2.50;1.50;;;;;7.15;69.39;101689.09;4992489;28;10577;-68
2023/01/30 09:33:16;;;;;;;;;4.50;2.00;;;;;7.15;69.48;101690.94;4991741;28;10557;-69
2023/01/30 09:35:46;;;;;;;;;3.50;1.25;;;;;7.17;68.45;101700.50;5010011;28;10588;-69
2023/01/30 09:38:12;;;;;;;;;1.25;1.25;;;;;7.18;68.50;101712.06;5011067;28;10555;-68
2023/01/30 09:40:53;;;;;;;;;1.50;1.50;;;;;7.12;69.48;101720.69;5006969;28;10646;-69
2023/01/30 09:43:27;;;;;;;;;5.00;2.00;;;;;7.13;68.83;101707.16;5011389;28;10861;-69
2023/01/30 09:46:15;;;;;;;;;1.50;1.50;;;;;7.07;69.32;101721.13;4991456;28;10678;-69
2023/01/30 09:48:54;;;;;;;;;7.50;6.25;;;;;7.03;69.54;101724.28;4993157;28;10710;-67
2023/01/30 09:51:41;;;;;;;;;7.75;4.00;;;;;7.05;69.74;101727.63;5010904;28;10750;-68
2023/01/30 09:54:16;;;;;;;;;4.25;0.75;;;;;7.14;69.44;101740.97;5000554;28;10721;-67
2023/01/30 09:56:43;;;;;;;;;3.50;1.25;;;;;7.15;68.92;101737.28;4991130;28;10722;-68
2023/01/30 09:59:21;;;;;;;;;4.50;3.00;;;;;7.07;69.32;101733.69;4995626;28;10767;-68
2023/01/30 10:01:57;;;;;;;;;5.50;1.50;;;;;7.08;69.24;101722.81;5010096;28;10746;-69
2023/01/30 10:04:32;;;;;;;;;4.00;4.00;;;;;7.13;69.06;101738.44;5002768;28;10679;-70
2023/01/30 10:07:38;;;;;;;;;9.00;4.00;;;;;7.09;69.88;101739.72;4995481;28;10818;-69
2023/01/30 10:10:16;;;;;;;;;5.75;4.00;;;;;7.12;68.85;101744.78;4996297;28;10677;-68
2023/01/30 10:12:52;;;;;;;;;7.25;4.00;;;;;7.20;68.14;101744.88;4991613;28;11335;-70
2023/01/30 10:15:49;;;;;;;;;1.75;1.00;;;;;7.27;68.30;101748.66;5003733;28;10775;-69
2023/01/30 10:18:19;;;;;;;;;3.00;1.50;;;;;7.26;68.83;101754.16;4991221;28;10654;-69
2023/01/30 10:21:04;;;;;;;;;10.75;1.50;;;;;7.15;69.11;101763.22;5004131;28;10584;-69
2023/01/30 10:24:07;;;;;;;;;1.75;1.75;;;;;7.15;68.49;101768.59;5007276;28;10735;-67
2023/01/30 10:26:34;;;;;;;;;6.00;4.75;;;;;7.23;68.56;101773.19;4981499;28;10748;-68
2023/01/30 10:29:17;;;;;;;;;2.50;2.50;;;;;7.24;69.02;101762.31;4995174;28;10673;-68
2023/01/30 10:31:55;;;;;;;;;2.00;1.00;;;;;7.27;68.77;101764.72;5010989;28;10483;-69
2023/01/30 10:34:28;;;;;;;;;5.50;3.25;;;;;7.26;68.30;101760.34;5002787;28;10705;-69
2023/01/30 10:37:07;;;;;;;;;5.00;2.00;;;;;7.27;68.65;101754.00;4995534;28;10795;-67
2023/01/30 10:40:12;;;;;;;;;2.50;2.50;;;;;7.36;69.13;101754.94;5002146;28;10594;-69
2023/01/30 10:42:49;;;;;;;;;2.00;2.00;;;;;7.49;68.21;101759.91;4991066;28;10650;-69
2023/01/30 10:45:24;;;;;;;;;1.00;1.00;;;;;7.59;67.90;101760.72;5005104;28;10760;-69
2023/01/30 10:47:59;;;;;;;;;1.00;1.00;;;;;7.68;68.03;101771.34;5010528;28;10450;-69
2023/01/30 10:50:56;;;;;;;;;7.00;2.00;;;;;7.77;67.32;101785.66;4997075;28;10390;-69
2023/01/30 10:53:27;;;;;;;;;4.25;1.75;;;;;7.73;67.19;101772.72;4990667;28;10420;-70
2023/01/30 10:56:10;;;;;;;;;4.25;1.50;;;;;7.73;67.43;101770.03;4990438;28;10523;-68
2023/01/30 10:58:52;;;;;;;;;7.00;4.25;;;;;7.72;67.61;101777.25;4991511;28;10468;-68
2023/01/30 11:01:27;;;;;;;;;5.50;3.00;;;;;7.73;67.49;101768.19;5010372;28;10575;-68
2023/01/30 11:04:21;;;;;;;;;3.00;0.25;;;;;7.78;66.97;101773.97;5006906;28;10361;-68
2023/01/30 11:06:48;;;;;;;;;4.50;2.50;;;;;7.85;67.25;101760.78;4991772;28;10390;-66
2023/01/30 11:09:14;;;;;;;;;5.75;4.50;;;;;7.72;67.85;101771.03;5000876;28;11239;-69
2023/01/30 11:11:48;;;;;;;;;3.00;2.50;;;;;7.75;67.50;101771.59;4991789;28;10584;-69
2023/01/30 11:14:14;;;;;;;;;1.00;1.00;;;;;7.83;67.13;101768.97;5000082;28;10566;-69
2023/01/30 11:16:52;;;;;;;;;10.25;7.00;;;;;7.96;67.21;101773.94;5003284;28;10438;-69
2023/01/30 11:19:23;;;;;;;;;7.50;2.00;;;;;8.02;67.91;101764.44;4999456;28;10700;-69
2023/01/30 11:21:58;;;;;;;;;3.00;1.50;;;;;8.15;67.46;101767.59;5005165;28;10522;-70
2023/01/30 11:24:30;;;;;;;;;2.00;1.00;;;;;8.17;67.17;101762.88;5004643;28;10536;-69
2023/01/30 11:27:36;;;;;;;;;4.00;1.00;;;;;8.19;66.46;101763.59;5013801;28;10368;-68
2023/01/30 11:30:25;;;;;;;;;3.25;1.00;;;;;8.14;67.12;101780.16;4914365;29;10493;-69
2023/01/30 11:33:07;;;;;;;;;5.25;1.50;;;;;8.14;66.81;101776.59;4914276;29;10576;-69
2023/01/30 11:35:42;;;;;;;;;8.00;6.50;;;;;8.14;66.38;101765.88;4978198;28;10512;-70
2023/01/30 11:38:31;;;;;;;;;1.50;1.25;;;;;8.15;66.95;101775.63;4993931;28;10557;-67
2023/01/30 11:41:06;;;;;;;;;5.25;1.75;;;;;8.07;66.69;101791.66;5010276;28;10632;-69
2023/01/30 11:43:34;;;;;;;;;5.00;4.00;;;;;7.96;67.38;101791.88;5012294;28;11555;-69
2023/01/30 11:46:01;;;;;;;;;4.00;2.00;;;;;7.95;66.89;101798.25;4993856;28;10601;-69
2023/01/30 11:48:31;;;;;;;;;3.50;3.50;;;;;8.01;67.33;101793.09;4993876;28;10560;-68
2023/01/30 11:51:22;;;;;;;;;3.25;3.25;;;;;8.04;65.98;101791.94;5008913;28;10593;-68
2023/01/30 11:54:15;;;;;;;;;3.50;2.00;;;;;8.02;67.07;101799.28;5009843;28;10727;-68
2023/01/30 11:56:50;;;;;;;;;4.00;2.00;;;;;8.11;66.63;101785.81;4989673;28;10610;-69
2023/01/30 11:59:19;;;;;;;;;4.50;3.00;;;;;8.01;66.34;101800.28;5000115;28;10614;-70
2023/01/30 12:01:46;;;;;;;;;2.25;2.25;;;;;8.06;66.34;101793.50;5012849;28;10607;-68